Details From VOMM - Chennai Intl
To VCBI - Bandaranaike Intl Colombo
Flight Number -
Tags Generated
Created
Modified
Stats Distance 351 nm / 650 km
Max Altitude 0 ft / 0 m
Waypoints 3
Social Downloads 0
Likes 0
Share VATSIM

Download

Looking for another format? Having issues loading an existing format? Contact us
Advertisement - Login to hide

Notes

Generated

Route

VOMM KAT88 VCBI

ID Type Via Altitude Latitude Longitude Leg Dist Tot Dist Heading (true) Name
O VOMM APT - 0 ft / 0 m 13.00194˚ 80.16584˚ - 0 nm - -
KAT88 FIX - 0 ft / 0 m 7.29984˚ 79.91901˚ 342 nm 342 nm 182° / 182° -
O VCBI APT - 0 ft / 0 m 7.16874˚ 79.87491˚ 8 nm 351 nm 198° / 198° -

Altitude Profile

Advertisement - Login to hide

Weather


0- 5 10 15 20 25 30 35+ Temperature / ° C

Clouds and Precipitation
Forecast for 2017-12-11 06:00 UTC. Updated an hour ago

Ground ~20,000 ft ~40,000 ft Winds

VOMM

Details ICAO VOMM (MAA)
Name CHENNAI INTL
Region India
Timezone Asia/Kolkata (UTC+5.5)
Stats Elevation 52 ft / 16 m (AMSL)
Location 12.993860° 80.171442°
Runways 2
Magnetic Variation 1.204° W

METAR

VOMM 110230Z 25003KT 2000 BR FEW020 24/22 Q1015 NOSIG

Decode

TAF

TAF VOMM 102300Z 1100/1206 VRB03KT 3000 BR FEW020 TEMPO 1100/1103 1500 BR BECMG 1105/1106 05005KT 3000 BR BECMG 1109/1110 5000 HZ BECMG 1121/1122 VRB03KT 3000 BR TEMPO 1200/1203 1500 BR BECMG 1205/1206 05005KT

Decode

Departure Runways

ID Width Length Bearing (true) Bearing (mag) Surface Threshold Offset Overrun Length
07 148 ft / 45 m 12,003 ft / 3,659 m 68.87° 70.07° Asphalt 0 ft / 0 m 481 ft / 147 m
12 148 ft / 45 m 6,711 ft / 2,046 m 117.77° 118.97° Asphalt 0 ft / 0 m 0 ft / 0 m
25 148 ft / 45 m 12,003 ft / 3,659 m 248.88° 250.08° Asphalt 0 ft / 0 m 492 ft / 150 m
30 148 ft / 45 m 6,711 ft / 2,046 m 297.78° 298.98° Asphalt 1,130 ft / 344 m 0 ft / 0 m

VCBI

Details ICAO VCBI (CMB)
Name BANDARANAIKE INTL COLOMBO
Region Sri Lanka
Timezone Asia/Colombo (UTC+5.5)
Stats Elevation 30 ft / 9 m (AMSL)
Location 7.180754° 79.884118°
Runways 1
Magnetic Variation 2.068° W

METAR

VCBI 110210Z 09004KT 050V120 7000 BR FEW018 BKN030 26/22 Q1013 BECMG 7000

Decode

TAF

Not found

Destination Runways

ID Width Length Bearing (true) Bearing (mag) Surface Threshold Offset Overrun Length
04 148 ft / 45 m 11,018 ft / 3,358 m 37.25° 39.32° Asphalt 0 ft / 0 m 215 ft / 66 m
22 148 ft / 45 m 11,018 ft / 3,358 m 217.25° 219.32° Asphalt 0 ft / 0 m 300 ft / 91 m

Approach Navaids

Runway Type Ident Frequency Range Bearing (true) Bearing (mag) Slope Elevation
04 Localiser IKW 109.90 MHz 18 nm / 33 km 36.30° 38.37° - 27 ft / 8 m (AMSL)
04 Glidescope IKW 109.90 MHz 10 nm / 19 km 37.25° 39.32° 3.00° 24 ft / 7 m (AMSL)
04 DME IKW 109.90 MHz 18 nm / 33 km - - - 39 ft / 12 m (AMSL)
22 Localiser IKA 110.30 MHz 18 nm / 33 km 218.17° 220.24° - 25 ft / 8 m (AMSL)
22 Glidescope IKA 110.30 MHz 10 nm / 19 km 217.25° 219.32° 3.00° 24 ft / 7 m (AMSL)
22 DME IKA 110.30 MHz 18 nm / 33 km - - - 24 ft / 7 m (AMSL)

Popular Alternatives